createdAt,value
2023-04-05T00:00:10.349Z,3.12
2023-04-05T00:02:40.807Z,3.09
2023-04-05T00:05:09.730Z,3.11
2023-04-05T00:07:38.404Z,3.18
2023-04-05T00:10:06.525Z,3.19
2023-04-05T00:12:35.289Z,3.15
2023-04-05T00:15:05.142Z,3.12
2023-04-05T00:17:32.992Z,3.08
2023-04-05T00:20:01.777Z,3.09
2023-04-05T00:22:31.822Z,2.99
2023-04-05T00:24:59.498Z,3.07
2023-04-05T00:27:27.196Z,3.08
2023-04-05T00:29:55.149Z,3.06
2023-04-05T00:32:24.409Z,2.99
2023-04-05T00:34:52.084Z,3.05
2023-04-05T00:37:20.020Z,3.13
2023-04-05T00:39:47.977Z,3.09
2023-04-05T00:42:15.633Z,3.05
2023-04-05T00:44:43.201Z,2.98
2023-04-05T00:47:10.874Z,3.11
2023-04-05T00:49:39.962Z,3.03
2023-04-05T00:52:10.447Z,3.00
2023-04-05T00:54:39.197Z,2.93
2023-04-05T00:57:07.381Z,2.97
2023-04-05T00:59:35.086Z,3.03
2023-04-05T01:02:13.364Z,3.09
2023-04-05T01:04:46.579Z,3.05
2023-04-05T01:07:24.486Z,2.94
2023-04-05T01:09:57.812Z,2.87
2023-04-05T01:12:29.577Z,2.78
2023-04-05T01:14:57.247Z,2.76
2023-04-05T01:17:28.266Z,2.80
2023-04-05T01:20:00.420Z,2.55
2023-04-05T01:23:00.948Z,2.52
2023-04-05T01:25:50.633Z,2.44
2023-04-05T01:28:50.812Z,2.36
2023-04-05T01:31:28.050Z,2.32
2023-04-05T01:34:01.004Z,2.35
2023-04-05T01:36:34.943Z,2.32
2023-04-05T01:39:05.429Z,2.44
2023-04-05T01:41:33.567Z,2.52
2023-04-05T01:44:01.210Z,2.48
2023-04-05T01:46:31.054Z,2.37
2023-04-05T01:48:58.712Z,2.30
2023-04-05T01:51:26.466Z,2.32
2023-04-05T01:53:54.078Z,2.18
2023-04-05T01:56:21.716Z,2.21
2023-04-05T01:58:49.392Z,2.17
2023-04-05T02:01:17.091Z,2.11
2023-04-05T02:03:46.400Z,2.15
2023-04-05T02:06:14.186Z,2.06
2023-04-05T02:08:41.757Z,2.02
2023-04-05T02:11:09.374Z,2.07
2023-04-05T02:13:37.036Z,2.17
2023-04-05T02:16:04.735Z,2.10
2023-04-05T02:18:32.372Z,1.99
2023-04-05T02:21:05.875Z,2.05
2023-04-05T02:23:34.017Z,1.96
2023-04-05T02:26:02.031Z,1.92
2023-04-05T02:28:30.166Z,1.92
2023-04-05T02:30:57.901Z,1.79
2023-04-05T02:33:25.830Z,1.71
2023-04-05T02:35:56.998Z,1.71
2023-04-05T02:38:25.956Z,1.78
2023-04-05T02:40:55.270Z,1.70
2023-04-05T02:43:22.888Z,1.81
2023-04-05T02:45:50.562Z,1.87
2023-04-05T02:48:18.254Z,1.86
2023-04-05T02:50:49.789Z,1.65
2023-04-05T02:53:17.528Z,1.71
2023-04-05T02:55:53.174Z,1.63
2023-04-05T02:58:20.904Z,1.56
2023-04-05T03:00:51.308Z,1.49
2023-04-05T03:03:19.334Z,1.53
2023-04-05T03:05:48.659Z,1.52
2023-04-05T03:08:25.949Z,1.65
2023-04-05T03:10:55.428Z,1.69
2023-04-05T03:13:23.086Z,1.64
2023-04-05T03:15:54.805Z,1.72
2023-04-05T03:18:22.747Z,1.55
2023-04-05T03:20:50.455Z,1.39
2023-04-05T03:23:18.524Z,1.39
2023-04-05T03:25:46.288Z,1.36
2023-04-05T03:28:15.329Z,1.29
2023-04-05T03:30:43.319Z,1.58
2023-04-05T03:33:11.077Z,1.51
2023-04-05T03:35:38.974Z,1.31
2023-04-05T03:38:07.524Z,1.28
2023-04-05T03:40:35.171Z,1.22
2023-04-05T03:43:02.992Z,1.33
2023-04-05T03:45:32.102Z,1.35
2023-04-05T03:48:00.032Z,1.36
2023-04-05T03:50:28.279Z,1.43
2023-04-05T03:52:55.988Z,1.36
2023-04-05T03:55:24.130Z,1.48
2023-04-05T03:57:51.861Z,1.50
2023-04-05T04:00:20.024Z,1.57
2023-04-05T04:02:49.521Z,1.47
2023-04-05T04:05:22.551Z,1.48
2023-04-05T04:07:50.512Z,1.50
2023-04-05T04:10:18.647Z,1.43
2023-04-05T04:12:46.537Z,1.28
2023-04-05T04:15:14.149Z,1.09
2023-04-05T04:17:41.729Z,1.03
2023-04-05T04:20:12.033Z,1.01
2023-04-05T04:22:40.788Z,1.22
2023-04-05T04:25:15.010Z,1.29
2023-04-05T04:27:48.269Z,1.16
2023-04-05T04:30:16.667Z,1.23
2023-04-05T04:32:54.733Z,1.16
2023-04-05T04:35:25.833Z,1.13
2023-04-05T04:37:57.937Z,1.02
2023-04-05T04:40:26.773Z,1.05
2023-04-05T04:42:54.742Z,1.15
2023-04-05T04:45:22.434Z,1.24
2023-04-05T04:47:52.838Z,1.40
2023-04-05T04:50:22.117Z,1.09
2023-04-05T04:52:51.308Z,1.01
2023-04-05T04:55:18.964Z,0.87
2023-04-05T04:57:46.615Z,0.85
2023-04-05T05:00:16.024Z,0.83
2023-04-05T05:02:44.766Z,0.89
2023-04-05T05:05:13.030Z,0.95
2023-04-05T05:07:43.779Z,0.86
2023-04-05T05:10:16.079Z,0.92
2023-04-05T05:12:43.983Z,0.98
2023-04-05T05:15:12.530Z,0.92
2023-04-05T05:17:40.321Z,1.16
2023-04-05T05:20:11.896Z,1.39
2023-04-05T05:22:41.452Z,1.83
2023-04-05T05:25:12.409Z,2.69
2023-04-05T05:27:41.985Z,2.90
2023-04-05T05:30:14.490Z,3.22
2023-04-05T05:32:42.969Z,4.13
2023-04-05T05:35:11.116Z,4.69
2023-04-05T05:37:38.915Z,4.86
2023-04-05T05:40:07.822Z,5.42
2023-04-05T05:42:35.897Z,5.92
2023-04-05T05:45:06.606Z,6.15
2023-04-05T05:47:34.340Z,6.00
2023-04-05T05:50:02.140Z,6.15
2023-04-05T05:52:29.788Z,6.28
2023-04-05T05:54:57.485Z,6.55
2023-04-05T05:57:25.048Z,6.75
2023-04-05T05:59:52.702Z,6.44
2023-04-05T06:02:22.009Z,7.43
2023-04-05T06:04:49.870Z,8.07
2023-04-05T06:07:28.926Z,9.48
2023-04-05T06:09:56.815Z,9.66
2023-04-05T06:12:24.817Z,9.94
2023-04-05T06:14:53.376Z,10.24
2023-04-05T06:20:03.815Z,10.46
2023-04-05T06:22:31.403Z,10.43
2023-04-05T06:24:58.975Z,10.94
2023-04-05T06:27:27.053Z,10.16
2023-04-05T06:29:55.500Z,9.27
2023-04-05T06:32:26.500Z,9.44
2023-04-05T06:34:54.380Z,9.63
2023-04-05T06:37:22.281Z,10.96
2023-04-05T06:39:51.597Z,11.62
2023-04-05T06:42:19.232Z,11.45
2023-04-05T06:44:46.864Z,10.91
2023-04-05T06:47:16.247Z,10.89
2023-04-05T06:49:45.418Z,11.36
2023-04-05T06:52:13.109Z,9.93
2023-04-05T06:54:40.765Z,9.76
2023-04-05T06:57:09.020Z,10.06
2023-04-05T06:59:38.034Z,9.47
2023-04-05T07:02:09.299Z,8.63
2023-04-05T07:04:38.166Z,9.64
2023-04-05T07:07:07.187Z,9.01
2023-04-05T07:09:34.836Z,8.69
2023-04-05T07:12:05.358Z,10.13
2023-04-05T07:14:34.252Z,11.45
2023-04-05T07:17:02.297Z,12.06
2023-04-05T07:19:30.007Z,11.04
2023-04-05T07:21:57.771Z,11.02
2023-04-05T07:24:26.899Z,10.97
2023-04-05T07:26:54.656Z,11.24
2023-04-05T07:29:22.565Z,10.78
2023-04-05T07:31:52.255Z,9.96
2023-04-05T07:34:20.131Z,9.91
2023-04-05T07:36:47.892Z,11.08
2023-04-05T07:39:15.860Z,11.48
2023-04-05T07:41:45.037Z,10.52
2023-04-05T07:44:12.655Z,9.09
2023-04-05T07:46:45.117Z,9.50
2023-04-05T07:49:15.036Z,10.60
2023-04-05T07:51:43.413Z,11.99
2023-04-05T07:54:11.545Z,11.28
2023-04-05T07:56:39.179Z,11.13
2023-04-05T07:59:08.866Z,11.02
2023-04-05T08:01:36.492Z,12.03
2023-04-05T08:04:04.170Z,11.42
2023-04-05T08:06:32.143Z,11.07
2023-04-05T08:08:59.952Z,11.87
2023-04-05T08:11:27.667Z,12.07
2023-04-05T08:13:57.167Z,12.76
2023-04-05T08:16:26.324Z,12.11
2023-04-05T08:18:54.128Z,11.93
2023-04-05T08:21:21.970Z,11.96
2023-04-05T08:23:51.887Z,11.26
2023-04-05T08:26:19.934Z,10.16
2023-04-05T08:28:47.737Z,10.59
2023-04-05T08:31:15.512Z,9.48
2023-04-05T08:33:44.593Z,11.15
2023-04-05T08:36:12.729Z,10.63
2023-04-05T08:38:40.391Z,11.99
2023-04-05T08:41:11.459Z,11.88
2023-04-05T08:43:54.130Z,12.18
2023-04-05T08:46:23.774Z,11.70
2023-04-05T08:48:53.466Z,10.79
2023-04-05T08:51:22.290Z,11.48
2023-04-05T08:53:50.490Z,11.81
2023-04-05T08:56:22.006Z,11.23
2023-04-05T08:58:57.745Z,11.10
2023-04-05T09:01:27.112Z,10.56
2023-04-05T09:03:57.797Z,11.17
2023-04-05T09:06:27.001Z,11.76
2023-04-05T09:08:56.453Z,11.12
2023-04-05T09:11:25.729Z,10.63
2023-04-05T09:13:56.415Z,9.76
2023-04-05T09:16:27.107Z,10.01
2023-04-05T09:18:56.277Z,10.40
2023-04-05T09:21:24.100Z,9.95
2023-04-05T09:23:55.965Z,9.37
2023-04-05T09:26:25.819Z,9.52
2023-04-05T09:28:53.734Z,9.37
2023-04-05T09:31:31.999Z,9.26
2023-04-05T09:34:03.412Z,9.30
2023-04-05T09:36:32.915Z,9.07
2023-04-05T09:39:07.913Z,8.74
2023-04-05T09:41:39.703Z,8.57
2023-04-05T09:44:07.996Z,8.03
2023-04-05T09:46:38.188Z,7.88
2023-04-05T09:49:11.126Z,7.26
2023-04-05T09:51:40.052Z,7.57
2023-04-05T09:54:10.290Z,7.15
2023-04-05T09:56:43.504Z,7.11
2023-04-05T09:59:13.533Z,7.67
2023-04-05T10:01:45.851Z,8.19
2023-04-05T10:04:14.835Z,8.27
2023-04-05T10:06:43.968Z,8.33
2023-04-05T10:09:14.981Z,8.32
2023-04-05T10:11:44.811Z,8.30
2023-04-05T10:14:12.461Z,8.26
2023-04-05T10:16:50.480Z,8.07
2023-04-05T10:19:27.819Z,8.19
2023-04-05T10:21:57.906Z,8.49
2023-04-05T10:24:36.775Z,8.76
2023-04-05T10:27:07.517Z,8.80
2023-04-05T10:29:44.846Z,8.68
2023-04-05T10:32:19.488Z,8.65
2023-04-05T10:34:58.598Z,8.53
2023-04-05T10:37:36.962Z,8.72
2023-04-05T10:40:09.174Z,8.48
2023-04-05T10:42:42.980Z,8.84
2023-04-05T10:45:15.386Z,8.91
2023-04-05T10:47:49.177Z,8.76
2023-04-05T10:50:23.144Z,8.39
2023-04-05T10:52:52.415Z,8.57
2023-04-05T10:55:21.355Z,8.52
2023-04-05T10:57:51.000Z,8.88
2023-04-05T11:00:20.271Z,8.60
2023-04-05T11:02:49.566Z,9.29
2023-04-05T11:05:35.648Z,9.47
2023-04-05T11:08:06.408Z,9.40
2023-04-05T11:10:37.438Z,9.41
2023-04-05T11:13:11.905Z,9.16
2023-04-05T11:15:40.088Z,9.15
2023-04-05T11:18:10.300Z,9.05
2023-04-05T11:20:47.138Z,9.27
2023-04-05T11:23:16.636Z,9.00
2023-04-05T11:25:50.915Z,9.33
2023-04-05T11:28:26.711Z,9.54
2023-04-05T11:30:57.032Z,9.72
2023-04-05T11:33:38.354Z,9.90
2023-04-05T11:36:08.746Z,9.92
2023-04-05T11:38:36.778Z,10.00
2023-04-05T11:41:12.292Z,9.48
2023-04-05T11:43:42.049Z,8.88
2023-04-05T11:46:09.656Z,8.57
2023-04-05T11:48:37.483Z,8.82
2023-04-05T11:51:10.639Z,9.51
2023-04-05T11:53:38.320Z,9.82
2023-04-05T11:56:12.772Z,10.17
2023-04-05T11:58:40.917Z,10.36
2023-04-05T12:01:10.033Z,10.21
2023-04-05T12:03:38.728Z,9.93
2023-04-05T12:06:09.109Z,9.47
2023-04-05T12:08:41.812Z,9.33
2023-04-05T12:11:11.458Z,9.83
2023-04-05T12:13:40.414Z,9.98
2023-04-05T12:16:09.743Z,10.08
2023-04-05T12:18:38.936Z,9.23
2023-04-05T12:21:08.515Z,9.85
2023-04-05T12:23:38.175Z,9.14
2023-04-05T12:26:07.954Z,9.26
2023-04-05T12:28:52.069Z,9.35
2023-04-05T12:31:35.868Z,9.60
2023-04-05T12:34:03.492Z,9.90
2023-04-05T12:36:32.520Z,9.73
2023-04-05T12:39:02.368Z,9.57
2023-04-05T12:41:30.678Z,9.18
2023-04-05T12:44:01.643Z,9.06
2023-04-05T12:46:40.498Z,9.00
2023-04-05T12:49:11.611Z,9.49
2023-04-05T12:51:42.894Z,9.88
2023-04-05T12:54:15.000Z,9.69
2023-04-05T12:56:42.860Z,9.92
2023-04-05T12:59:10.884Z,9.81
2023-04-05T13:01:39.275Z,9.83
2023-04-05T13:04:15.365Z,9.66
2023-04-05T13:06:44.427Z,9.81
2023-04-05T13:09:12.224Z,10.06
2023-04-05T13:11:41.277Z,10.29
2023-04-05T13:14:08.922Z,10.29
2023-04-05T13:16:36.725Z,10.28
2023-04-05T13:19:04.494Z,10.43
2023-04-05T13:21:32.550Z,10.53
2023-04-05T13:24:00.241Z,10.60
2023-04-05T13:26:28.242Z,10.67
2023-04-05T13:28:57.253Z,10.71
2023-04-05T13:31:25.063Z,10.66
2023-04-05T13:33:52.985Z,10.36
2023-04-05T13:36:20.576Z,9.67
2023-04-05T13:38:48.102Z,10.07
2023-04-05T13:41:16.154Z,10.45
2023-04-05T13:43:43.777Z,10.28
2023-04-05T13:46:12.684Z,10.53
2023-04-05T13:48:40.487Z,10.69
2023-04-05T13:51:08.351Z,11.07
2023-04-05T13:53:35.986Z,11.16
2023-04-05T13:56:03.589Z,11.13
2023-04-05T13:58:31.249Z,11.00
2023-04-05T14:00:58.941Z,10.71
2023-04-05T14:03:28.115Z,10.73
2023-04-05T14:05:55.851Z,10.89
2023-04-05T14:08:23.472Z,10.80
2023-04-05T14:10:51.448Z,10.61
2023-04-05T14:13:19.085Z,10.10
2023-04-05T14:15:46.638Z,10.40
2023-04-05T14:18:14.304Z,10.06
2023-04-05T14:20:43.508Z,10.55
2023-04-05T14:23:11.378Z,10.28
2023-04-05T14:25:39.049Z,10.28
2023-04-05T14:28:06.936Z,10.34
2023-04-05T14:30:34.573Z,10.39
2023-04-05T14:33:02.597Z,10.52
2023-04-05T14:35:30.418Z,10.64
2023-04-05T14:37:59.298Z,10.52
2023-04-05T14:40:27.005Z,10.70
2023-04-05T14:42:54.754Z,10.63
2023-04-05T14:45:23.545Z,10.77
2023-04-05T14:47:51.802Z,10.63
2023-04-05T14:50:19.909Z,10.86
2023-04-05T14:52:47.632Z,10.72
2023-04-05T14:55:16.761Z,10.65
2023-04-05T14:57:44.402Z,10.25
2023-04-05T15:00:13.489Z,10.24
2023-04-05T15:02:43.306Z,10.40
2023-04-05T15:05:12.357Z,10.26
2023-04-05T15:07:42.159Z,10.61
2023-04-05T15:10:19.517Z,10.78
2023-04-05T15:12:50.382Z,10.67
2023-04-05T15:15:18.446Z,10.85
2023-04-05T15:17:46.184Z,10.78
2023-04-05T15:20:25.860Z,10.68
2023-04-05T15:22:53.899Z,10.60
2023-04-05T15:25:21.877Z,10.31
2023-04-05T15:27:51.301Z,10.19
2023-04-05T15:30:20.516Z,10.20
2023-04-05T15:32:50.421Z,10.32
2023-04-05T15:35:18.714Z,10.36
2023-04-05T15:37:46.887Z,10.29
2023-04-05T15:40:14.802Z,10.35
2023-04-05T15:42:42.505Z,10.43
2023-04-05T15:45:12.766Z,10.17
2023-04-05T15:47:41.021Z,9.76
2023-04-05T15:50:09.137Z,9.92
2023-04-05T15:52:37.873Z,10.19
2023-04-05T15:55:09.690Z,10.33
2023-04-05T15:57:37.444Z,10.14
2023-04-05T16:00:09.227Z,10.27
2023-04-05T16:02:39.473Z,10.31
2023-04-05T16:05:07.832Z,10.40
2023-04-05T16:07:35.806Z,10.35
2023-04-05T16:10:04.449Z,10.33
2023-04-05T16:12:32.171Z,10.21
2023-04-05T16:14:59.824Z,10.06
2023-04-05T16:17:27.934Z,10.12
2023-04-05T16:19:57.481Z,10.10
2023-04-05T16:22:25.697Z,9.89
2023-04-05T16:24:53.695Z,10.14
2023-04-05T16:27:21.386Z,10.03
2023-04-05T16:29:49.443Z,10.12
2023-04-05T16:32:18.074Z,9.87
2023-04-05T16:34:45.933Z,9.85
2023-04-05T16:37:14.960Z,9.90
2023-04-05T16:39:50.737Z,10.19
2023-04-05T16:42:18.500Z,10.13
2023-04-05T16:44:46.439Z,9.66
2023-04-05T16:47:14.097Z,9.54
2023-04-05T16:49:41.775Z,9.55
2023-04-05T16:52:10.279Z,9.65
2023-04-05T16:54:39.622Z,9.60
2023-04-05T16:57:07.264Z,9.74
2023-04-05T16:59:35.010Z,9.85
2023-04-05T17:02:04.382Z,9.61
2023-04-05T17:04:32.454Z,9.55
2023-04-05T17:07:00.530Z,9.45
2023-04-05T17:09:29.203Z,9.67
2023-04-05T17:11:58.192Z,9.77
2023-04-05T17:14:26.449Z,9.62
2023-04-05T17:17:13.853Z,9.30
2023-04-05T17:22:24.477Z,9.44
2023-04-05T17:24:58.072Z,9.45
2023-04-05T17:27:35.204Z,9.51
2023-04-05T17:30:10.594Z,9.50
2023-04-05T17:32:41.011Z,9.39
2023-04-05T17:35:30.291Z,9.19
2023-04-05T17:38:03.194Z,8.96
2023-04-05T17:40:53.284Z,8.91
2023-04-05T17:43:31.835Z,8.69
2023-04-05T17:46:00.095Z,8.59
2023-04-05T17:48:30.683Z,8.54
2023-04-05T17:50:58.416Z,8.47
2023-04-05T17:53:26.786Z,8.39
2023-04-05T17:55:56.669Z,8.23
2023-04-05T17:58:26.424Z,8.13
2023-04-05T18:00:56.937Z,8.36
2023-04-05T18:03:26.009Z,8.56
2023-04-05T18:05:54.602Z,8.77
2023-04-05T18:08:23.535Z,8.75
2023-04-05T18:11:07.723Z,8.68
2023-04-05T18:13:39.149Z,8.59
2023-04-05T18:16:06.994Z,8.58
2023-04-05T18:18:35.857Z,8.35
2023-04-05T18:21:03.600Z,8.07
2023-04-05T18:23:31.376Z,7.85
2023-04-05T18:25:59.380Z,7.71
2023-04-05T18:28:27.089Z,7.57
2023-04-05T18:30:57.348Z,7.53
2023-04-05T18:33:25.864Z,7.45
2023-04-05T18:35:54.180Z,7.44
2023-04-05T18:38:22.597Z,7.35
2023-04-05T18:40:50.384Z,7.36
2023-04-05T18:43:18.022Z,7.32
2023-04-05T18:45:45.787Z,7.54
2023-04-05T18:48:18.844Z,7.51
2023-04-05T18:50:48.136Z,7.54
2023-04-05T18:53:16.228Z,7.56
2023-04-05T18:55:44.952Z,7.53
2023-04-05T19:07:05.410Z,7.23
2023-04-05T19:09:40.982Z,7.14
2023-04-05T19:12:15.548Z,7.08
2023-04-05T19:14:43.388Z,7.13
2023-04-05T19:17:11.090Z,7.18
2023-04-05T19:19:40.162Z,7.22
2023-04-05T19:22:11.383Z,7.26
2023-04-05T19:24:45.029Z,7.21
2023-04-05T19:27:36.839Z,7.07
2023-04-05T19:32:53.847Z,6.85
2023-04-05T19:35:29.722Z,6.80
2023-04-05T19:37:59.061Z,6.86
2023-04-05T19:40:27.001Z,6.85
2023-04-05T19:42:58.427Z,6.80
2023-04-05T19:45:28.089Z,6.77
2023-04-05T19:47:57.021Z,6.70
2023-04-05T19:50:47.169Z,6.66
2023-04-05T19:53:41.860Z,6.78
2023-04-05T19:56:30.492Z,6.89
2023-04-05T19:59:01.923Z,6.92
2023-04-05T20:01:35.676Z,6.79
2023-04-05T20:09:47.593Z,6.63
2023-04-05T20:12:16.074Z,6.66
2023-04-05T20:14:46.351Z,6.84
2023-04-05T20:17:16.092Z,6.75
2023-04-05T20:20:12.366Z,6.71
2023-04-05T20:22:57.065Z,6.56
2023-04-05T20:25:58.157Z,6.48
2023-04-05T20:28:41.623Z,6.36
2023-04-05T20:31:17.754Z,6.36
2023-04-05T20:37:34.458Z,6.12
2023-04-05T20:40:09.053Z,6.04
2023-04-05T20:42:46.186Z,5.89
2023-04-05T20:45:45.908Z,5.92
2023-04-05T20:54:02.907Z,5.78
2023-04-05T20:56:53.514Z,5.61
2023-04-05T21:05:26.318Z,5.65
2023-04-05T21:07:56.619Z,5.51
2023-04-05T21:10:24.871Z,5.60
2023-04-05T21:13:03.330Z,5.70
2023-04-05T21:15:34.963Z,5.64
2023-04-05T21:18:10.032Z,5.45
2023-04-05T21:20:42.286Z,5.33
2023-04-05T21:23:12.215Z,5.26
2023-04-05T21:26:10.031Z,5.21
2023-04-05T21:28:47.618Z,5.15
2023-04-05T21:31:34.490Z,5.11
2023-04-05T21:34:03.333Z,5.08
2023-04-05T21:36:39.078Z,4.94
2023-04-05T21:39:08.132Z,4.72
2023-04-05T21:41:37.044Z,4.64
2023-04-05T21:44:09.124Z,4.57
2023-04-05T21:46:39.425Z,4.45
2023-04-05T21:49:07.716Z,4.47
2023-04-05T21:51:36.001Z,4.38
2023-04-05T21:54:14.400Z,4.33
2023-04-05T21:56:44.848Z,4.29
2023-04-05T21:59:24.015Z,4.20
2023-04-05T22:02:13.356Z,4.19
2023-04-05T22:04:41.303Z,4.25
2023-04-05T22:07:10.631Z,4.24
2023-04-05T22:09:42.646Z,4.23
2023-04-05T22:12:18.855Z,4.28
2023-04-05T22:17:48.374Z,4.19
2023-04-05T22:20:18.098Z,4.15
2023-04-05T22:22:47.194Z,4.17
2023-04-05T22:25:21.656Z,4.17
2023-04-05T22:28:02.234Z,4.22
2023-04-05T22:30:46.771Z,4.17
2023-04-05T22:33:22.072Z,4.16
2023-04-05T22:35:59.589Z,4.12
2023-04-05T22:38:32.770Z,4.16
2023-04-05T22:41:06.929Z,4.03
2023-04-05T22:43:36.181Z,4.05
2023-04-05T22:46:16.410Z,3.93
2023-04-05T22:48:48.017Z,3.78
2023-04-05T22:54:05.447Z,3.84
2023-04-05T22:56:48.363Z,3.83
2023-04-05T23:02:08.514Z,3.71
2023-04-05T23:07:29.731Z,3.83
2023-04-05T23:10:02.461Z,3.81
2023-04-05T23:12:30.641Z,3.87
2023-04-05T23:15:02.097Z,3.76
2023-04-05T23:17:45.282Z,3.61
2023-04-05T23:20:16.079Z,3.44
2023-04-05T23:23:04.403Z,3.59
2023-04-05T23:25:36.525Z,3.42
2023-04-05T23:28:12.886Z,3.28
2023-04-05T23:33:57.580Z,3.14
2023-04-05T23:36:30.128Z,3.23
2023-04-05T23:39:02.207Z,3.09
2023-04-05T23:41:31.092Z,2.91
2023-04-05T23:44:02.633Z,2.80
2023-04-05T23:46:36.552Z,2.76
2023-04-05T23:49:17.810Z,2.91
2023-04-05T23:51:46.266Z,2.95
2023-04-05T23:54:38.720Z,2.89
2023-04-05T23:59:56.569Z,2.94
